Time;durP1;ratioP1;P1;durP2;ratioP2;P2;SDS_P1;SDS_P2;PMS_P1;PMS_P2;Temp;Humidity;BMP_temperature;BMP_pressure;BME280_temperature;BME280_humidity;BME280_pressure;Samples;Min_cycle;Max_cycle;Signal;HPM_P1;HPM_P2
2023/04/06 00:02:17;;;;;;;;;;;;;;;;;;2215128;66;1425;-24
2023/04/06 00:04:47;;;;;;;;;;;;;;;;;;2215456;66;1254;-24
2023/04/06 00:07:17;;;;;;;;;;;;;;;;;;2215284;58;2182;-24
2023/04/06 00:09:47;;;;;;;;;;;;;;;;;;2215824;58;1618;-24
2023/04/06 00:12:17;;;;;;;;;;;;;;;;;;2214752;59;2090;-24
2023/04/06 00:14:48;;;;;;;;;;;;;;;;;;2215313;66;1203;-24
2023/04/06 00:17:18;;;;;;;;;;;;;;;;;;2215574;66;1370;-24
2023/04/06 00:19:48;;;;;;;;;;;;;;;;;;2215580;66;1184;-24
2023/04/06 00:22:18;;;;;;;;;;;;;;;;;;2215772;66;1271;-24
2023/04/06 00:24:49;;;;;;;;;;;;;;;;;;2212071;66;1386;-24
2023/04/06 00:27:19;;;;;;;;;;;;;;;;;;2212101;66;1945;-24
2023/04/06 00:29:50;;;;;;;;;;;;;;;;;;2211458;66;1485;-24
2023/04/06 00:32:20;;;;;;;;;;;;;;;;;;2215263;58;1992;-24
2023/04/06 00:34:50;;;;;;;;;;;;;;;;;;2215901;58;2179;-24
2023/04/06 00:37:20;;;;;;;;;;;;;;;;;;2212812;59;1590;-24
2023/04/06 00:39:54;;;;;;;;;;;;;;;;;;2212340;59;2109;-24
2023/04/06 00:42:27;;;;;;;;;;;;;;;;;;2214558;58;1892;-24
2023/04/06 00:44:58;;;;;;;;;;;;;;;;;;2215370;66;1801;-24
2023/04/06 00:47:29;;;;;;;;;;;;;;;;;;2213921;58;2568;-24
2023/04/06 00:49:59;;;;;;;;;;;;;;;;;;2215165;59;1709;-24
2023/04/06 00:52:30;;;;;;;;;;;;;;;;;;2215563;66;1307;-24
2023/04/06 00:55:00;;;;;;;;;;;;;;;;;;2215307;59;1628;-24
2023/04/06 00:57:30;;;;;;;;;;;;;;;;;;2214984;66;1351;-24
2023/04/06 01:00:01;;;;;;;;;;;;;;;;;;2215000;66;1165;-24
2023/04/06 01:02:31;;;;;;;;;;;;;;;;;;2211397;59;2144;-24
2023/04/06 01:05:01;;;;;;;;;;;;;;;;;;2211085;66;1339;-24
2023/04/06 01:07:31;;;;;;;;;;;;;;;;;;2211040;59;1989;-24
2023/04/06 01:10:02;;;;;;;;;;;;;;;;;;2211711;59;1392;-25
2023/04/06 01:12:33;;;;;;;;;;;;;;;;;;2214218;66;1444;-24
2023/04/06 01:15:06;;;;;;;;;;;;;;;;;;2215309;66;1223;-24
2023/04/06 01:17:36;;;;;;;;;;;;;;;;;;2211394;66;1563;-24
2023/04/06 01:20:07;;;;;;;;;;;;;;;;;;2215879;66;1107;-24
2023/04/06 01:22:37;;;;;;;;;;;;;;;;;;2215456;66;1718;-24
2023/04/06 01:25:07;;;;;;;;;;;;;;;;;;2216039;66;1237;-24
2023/04/06 01:27:38;;;;;;;;;;;;;;;;;;2215289;66;1933;-24
2023/04/06 01:30:08;;;;;;;;;;;;;;;;;;2215356;66;1430;-24
2023/04/06 01:32:38;;;;;;;;;;;;;;;;;;2215463;66;1298;-24
2023/04/06 01:35:09;;;;;;;;;;;;;;;;;;2215977;58;1806;-24
2023/04/06 01:37:40;;;;;;;;;;;;;;;;;;2212811;66;1259;-24
2023/04/06 01:40:11;;;;;;;;;;;;;;;;;;2215076;66;1209;-24
2023/04/06 01:42:42;;;;;;;;;;;;;;;;;;2216083;58;1663;-24
2023/04/06 01:45:12;;;;;;;;;;;;;;;;;;2215335;66;1179;-24
2023/04/06 01:47:42;;;;;;;;;;;;;;;;;;2212283;66;2002;-24
2023/04/06 01:50:12;;;;;;;;;;;;;;;;;;2215939;58;1581;-24
2023/04/06 01:52:42;;;;;;;;;;;;;;;;;;2212761;66;1322;-24
2023/04/06 01:55:13;;;;;;;;;;;;;;;;;;2211939;59;1366;-24
2023/04/06 01:57:43;;;;;;;;;;;;;;;;;;2215829;66;1389;-24
2023/04/06 02:00:14;;;;;;;;;;;;;;;;;;2215541;66;1269;-24
2023/04/06 02:02:47;;;;;;;;;;;;;;;;;;2216026;66;1289;-24
2023/04/06 02:05:17;;;;;;;;;;;;;;;;;;2215105;66;1199;-24
2023/04/06 02:07:48;;;;;;;;;;;;;;;;;;2215834;59;1941;-24
2023/04/06 02:10:19;;;;;;;;;;;;;;;;;;2215158;58;1820;-24
2023/04/06 02:12:49;;;;;;;;;;;;;;;;;;2216260;66;1460;-24
2023/04/06 02:15:19;;;;;;;;;;;;;;;;;;2212292;66;1206;-24
2023/04/06 02:17:50;;;;;;;;;;;;;;;;;;2212467;66;1567;-24
2023/04/06 02:20:20;;;;;;;;;;;;;;;;;;2212756;66;1812;-24
2023/04/06 02:22:51;;;;;;;;;;;;;;;;;;2213528;66;1362;-24
2023/04/06 02:25:21;;;;;;;;;;;;;;;;;;2216524;66;1230;-24
2023/04/06 02:27:51;;;;;;;;;;;;;;;;;;2213461;59;1937;-24
2023/04/06 02:30:21;;;;;;;;;;;;;;;;;;2215341;66;2366;-24
2023/04/06 02:32:51;;;;;;;;;;;;;;;;;;2216249;66;1156;-24
2023/04/06 02:35:22;;;;;;;;;;;;;;;;;;2215772;58;1535;-24
2023/04/06 02:37:52;;;;;;;;;;;;;;;;;;2215581;66;1181;-24
2023/04/06 02:40:22;;;;;;;;;;;;;;;;;;2215852;59;1656;-24
2023/04/06 02:42:52;;;;;;;;;;;;;;;;;;2216238;58;1304;-24
2023/04/06 02:45:23;;;;;;;;;;;;;;;;;;2213387;66;1600;-23
2023/04/06 02:47:53;;;;;;;;;;;;;;;;;;2215202;66;1927;-24
2023/04/06 02:50:23;;;;;;;;;;;;;;;;;;2213098;66;1161;-24
2023/04/06 02:52:53;;;;;;;;;;;;;;;;;;2215549;66;1894;-23
2023/04/06 02:55:23;;;;;;;;;;;;;;;;;;2213079;59;1351;-24
2023/04/06 02:57:54;;;;;;;;;;;;;;;;;;2212181;66;1723;-24
2023/04/06 03:00:24;;;;;;;;;;;;;;;;;;2215449;66;1729;-23
2023/04/06 03:02:54;;;;;;;;;;;;;;;;;;2214963;66;1164;-24
2023/04/06 03:05:25;;;;;;;;;;;;;;;;;;2215782;66;1203;-24
2023/04/06 03:07:55;;;;;;;;;;;;;;;;;;2215286;66;2011;-24
2023/04/06 03:10:25;;;;;;;;;;;;;;;;;;2215661;58;1202;-24
2023/04/06 03:12:55;;;;;;;;;;;;;;;;;;2216067;66;1127;-23
2023/04/06 03:15:26;;;;;;;;;;;;;;;;;;2215570;66;1672;-24
2023/04/06 03:17:56;;;;;;;;;;;;;;;;;;2212306;59;1188;-24
2023/04/06 03:20:26;;;;;;;;;;;;;;;;;;2215509;66;1606;-23
2023/04/06 03:22:57;;;;;;;;;;;;;;;;;;2213005;66;1925;-24
2023/04/06 03:25:27;;;;;;;;;;;;;;;;;;2215620;66;1472;-24
2023/04/06 03:27:57;;;;;;;;;;;;;;;;;;2212814;66;1996;-24
2023/04/06 03:30:27;;;;;;;;;;;;;;;;;;2213395;66;1209;-23
2023/04/06 03:32:57;;;;;;;;;;;;;;;;;;2216064;66;1357;-24
2023/04/06 03:35:28;;;;;;;;;;;;;;;;;;2215340;58;1532;-23
2023/04/06 03:37:58;;;;;;;;;;;;;;;;;;2213274;66;1735;-24
2023/04/06 03:40:28;;;;;;;;;;;;;;;;;;2211621;59;1639;-23
2023/04/06 03:42:58;;;;;;;;;;;;;;;;;;2215329;58;1544;-24
2023/04/06 03:45:29;;;;;;;;;;;;;;;;;;2215176;58;2284;-23
2023/04/06 03:47:59;;;;;;;;;;;;;;;;;;2215744;66;2000;-24
2023/04/06 03:50:29;;;;;;;;;;;;;;;;;;2211686;59;2185;-24
2023/04/06 03:53:02;;;;;;;;;;;;;;;;;;2212610;66;1344;-24
2023/04/06 03:55:33;;;;;;;;;;;;;;;;;;2215742;58;1167;-23
2023/04/06 03:58:03;;;;;;;;;;;;;;;;;;2212276;66;1318;-23
2023/04/06 04:00:33;;;;;;;;;;;;;;;;;;2215845;66;1146;-23
2023/04/06 04:03:03;;;;;;;;;;;;;;;;;;2215678;66;1278;-24
2023/04/06 04:05:33;;;;;;;;;;;;;;;;;;2215644;66;1254;-23
2023/04/06 04:08:04;;;;;;;;;;;;;;;;;;2212244;59;1930;-23
2023/04/06 04:10:34;;;;;;;;;;;;;;;;;;2215796;58;1202;-23
2023/04/06 04:13:04;;;;;;;;;;;;;;;;;;2216183;66;1426;-24
2023/04/06 04:15:34;;;;;;;;;;;;;;;;;;2213270;66;1775;-23
2023/04/06 04:18:04;;;;;;;;;;;;;;;;;;2213312;66;1154;-23
2023/04/06 04:20:35;;;;;;;;;;;;;;;;;;2213215;66;1521;-23
2023/04/06 04:23:05;;;;;;;;;;;;;;;;;;2215261;66;1309;-24
2023/04/06 04:25:35;;;;;;;;;;;;;;;;;;2212671;66;1678;-23
2023/04/06 04:28:05;;;;;;;;;;;;;;;;;;2215612;66;1935;-23
2023/04/06 04:30:39;;;;;;;;;;;;;;;;;;2211898;59;1262;-23
2023/04/06 04:33:09;;;;;;;;;;;;;;;;;;2215625;58;1264;-23
2023/04/06 04:35:39;;;;;;;;;;;;;;;;;;2214010;58;1752;-23
2023/04/06 04:38:10;;;;;;;;;;;;;;;;;;2213719;58;2598;-24
2023/04/06 04:40:40;;;;;;;;;;;;;;;;;;2210305;59;2287;-24
2023/04/06 04:43:13;;;;;;;;;;;;;;;;;;2215340;66;1340;-23
2023/04/06 04:45:43;;;;;;;;;;;;;;;;;;2211355;58;2128;-23
2023/04/06 04:48:13;;;;;;;;;;;;;;;;;;2212360;58;2373;-23
2023/04/06 04:50:44;;;;;;;;;;;;;;;;;;2210857;66;1343;-23
2023/04/06 04:53:17;;;;;;;;;;;;;;;;;;2214420;58;1982;-23
2023/04/06 04:55:47;;;;;;;;;;;;;;;;;;2215213;66;1321;-23
2023/04/06 04:58:19;;;;;;;;;;;;;;;;;;2215091;58;2104;-23
2023/04/06 05:00:49;;;;;;;;;;;;;;;;;;2214405;66;1796;-23
2023/04/06 05:03:22;;;;;;;;;;;;;;;;;;2214285;58;2085;-23
2023/04/06 05:05:52;;;;;;;;;;;;;;;;;;2209297;66;1346;-24
2023/04/06 05:08:25;;;;;;;;;;;;;;;;;;2214793;58;1941;-23
2023/04/06 05:10:56;;;;;;;;;;;;;;;;;;2209975;59;2081;-23
2023/04/06 05:13:26;;;;;;;;;;;;;;;;;;2214237;59;2253;-23
2023/04/06 05:15:56;;;;;;;;;;;;;;;;;;2213628;59;2117;-23
2023/04/06 05:18:26;;;;;;;;;;;;;;;;;;2214630;66;1201;-23
2023/04/06 05:20:57;;;;;;;;;;;;;;;;;;2213462;59;2241;-23
2023/04/06 05:23:27;;;;;;;;;;;;;;;;;;2214646;66;1684;-23
2023/04/06 05:25:57;;;;;;;;;;;;;;;;;;2214156;59;2099;-24
2023/04/06 05:28:27;;;;;;;;;;;;;;;;;;2214546;58;2169;-24
2023/04/06 05:30:58;;;;;;;;;;;;;;;;;;2214659;58;1938;-23
2023/04/06 05:33:32;;;;;;;;;;;;;;;;;;2213850;58;2027;-24
2023/04/06 05:36:03;;;;;;;;;;;;;;;;;;2211298;59;2268;-24
2023/04/06 05:38:33;;;;;;;;;;;;;;;;;;2215294;66;1524;-23
2023/04/06 05:41:04;;;;;;;;;;;;;;;;;;2211484;59;2299;-23
2023/04/06 05:43:34;;;;;;;;;;;;;;;;;;2215128;58;1672;-23
2023/04/06 05:46:04;;;;;;;;;;;;;;;;;;2214591;59;2012;-23
2023/04/06 05:48:37;;;;;;;;;;;;;;;;;;2213780;58;2860;-24
2023/04/06 05:51:08;;;;;;;;;;;;;;;;;;2214383;59;2276;-24
2023/04/06 05:53:38;;;;;;;;;;;;;;;;;;2213970;66;1249;-23
2023/04/06 05:56:08;;;;;;;;;;;;;;;;;;2214052;58;1999;-24
2023/04/06 05:58:38;;;;;;;;;;;;;;;;;;2214164;66;1134;-24
2023/04/06 06:01:09;;;;;;;;;;;;;;;;;;2211371;59;2209;-24
2023/04/06 06:03:39;;;;;;;;;;;;;;;;;;2214805;66;1714;-24
2023/04/06 06:06:10;;;;;;;;;;;;;;;;;;2214464;59;2157;-24
2023/04/06 06:08:40;;;;;;;;;;;;;;;;;;2214902;58;2154;-24
2023/04/06 06:11:11;;;;;;;;;;;;;;;;;;2215315;58;2563;-24
2023/04/06 06:13:41;;;;;;;;;;;;;;;;;;2215790;66;1105;-24
2023/04/06 06:16:11;;;;;;;;;;;;;;;;;;2214817;58;2223;-24
2023/04/06 06:18:41;;;;;;;;;;;;;;;;;;2214503;58;2611;-24
2023/04/06 06:21:12;;;;;;;;;;;;;;;;;;2214967;58;2078;-24
2023/04/06 06:23:42;;;;;;;;;;;;;;;;;;2214889;58;1822;-24
2023/04/06 06:26:13;;;;;;;;;;;;;;;;;;2215501;58;2181;-24
2023/04/06 06:28:43;;;;;;;;;;;;;;;;;;2214374;58;2131;-24
2023/04/06 06:31:13;;;;;;;;;;;;;;;;;;2214632;58;2164;-24
2023/04/06 06:33:43;;;;;;;;;;;;;;;;;;2214711;58;2065;-24
2023/04/06 06:36:14;;;;;;;;;;;;;;;;;;2215588;58;1336;-24
2023/04/06 06:38:44;;;;;;;;;;;;;;;;;;2214517;58;2041;-24
2023/04/06 06:41:15;;;;;;;;;;;;;;;;;;2212690;58;1986;-24
2023/04/06 06:43:45;;;;;;;;;;;;;;;;;;2214935;58;2226;-24
2023/04/06 06:46:15;;;;;;;;;;;;;;;;;;2210877;58;2492;-24
2023/04/06 06:48:46;;;;;;;;;;;;;;;;;;2213392;59;2581;-24
2023/04/06 06:51:16;;;;;;;;;;;;;;;;;;2214680;58;2500;-24
2023/04/06 06:53:47;;;;;;;;;;;;;;;;;;2214241;58;2249;-24
2023/04/06 06:56:17;;;;;;;;;;;;;;;;;;2214906;58;2079;-24
2023/04/06 06:58:48;;;;;;;;;;;;;;;;;;2211276;59;2177;-24
2023/04/06 07:01:18;;;;;;;;;;;;;;;;;;2215361;66;1386;-24
2023/04/06 07:03:48;;;;;;;;;;;;;;;;;;2215101;58;1966;-24
2023/04/06 07:06:18;;;;;;;;;;;;;;;;;;2214777;58;1758;-24
2023/04/06 07:08:48;;;;;;;;;;;;;;;;;;2212055;59;2240;-24
2023/04/06 07:11:19;;;;;;;;;;;;;;;;;;2214906;58;1420;-24
2023/04/06 07:13:49;;;;;;;;;;;;;;;;;;2208823;59;17218;-25
2023/04/06 07:16:19;;;;;;;;;;;;;;;;;;2202122;59;2351;-25
2023/04/06 07:18:50;;;;;;;;;;;;;;;;;;2205346;67;1155;-25
2023/04/06 07:21:20;;;;;;;;;;;;;;;;;;2205266;59;2363;-23
2023/04/06 07:23:50;;;;;;;;;;;;;;;;;;2205382;67;2239;-23
2023/04/06 07:26:27;;;;;;;;;;;;;;;;;;2204983;59;2097;-23
2023/04/06 07:28:57;;;;;;;;;;;;;;;;;;2205235;59;1698;-23
2023/04/06 07:31:27;;;;;;;;;;;;;;;;;;2205109;59;2170;-23
2023/04/06 07:33:57;;;;;;;;;;;;;;;;;;2202607;59;1737;-23
2023/04/06 07:36:28;;;;;;;;;;;;;;;;;;2205448;59;2168;-23
2023/04/06 07:38:58;;;;;;;;;;;;;;;;;;2205898;67;1476;-23
2023/04/06 07:41:28;;;;;;;;;;;;;;;;;;2206777;59;2192;-23
2023/04/06 07:43:58;;;;;;;;;;;;;;;;;;2202007;59;1417;-23
2023/04/06 07:46:29;;;;;;;;;;;;;;;;;;2205968;59;2170;-23
2023/04/06 07:48:59;;;;;;;;;;;;;;;;;;2206806;59;2108;-23
2023/04/06 07:51:30;;;;;;;;;;;;;;;;;;2201907;60;2553;-23
2023/04/06 07:54:01;;;;;;;;;;;;;;;;;;2205652;67;1759;-23
2023/04/06 07:56:31;;;;;;;;;;;;;;;;;;2201520;59;2155;-23
2023/04/06 07:59:02;;;;;;;;;;;;;;;;;;2204307;59;1904;-23
2023/04/06 08:01:32;;;;;;;;;;;;;;;;;;2199417;59;2407;-23
2023/04/06 08:04:03;;;;;;;;;;;;;;;;;;2205188;59;2348;-23
2023/04/06 08:06:34;;;;;;;;;;;;;;;;;;2205484;59;2253;-23
2023/04/06 08:09:04;;;;;;;;;;;;;;;;;;2205612;59;1419;-23
2023/04/06 08:11:34;;;;;;;;;;;;;;;;;;2202173;59;2009;-23
2023/04/06 08:14:05;;;;;;;;;;;;;;;;;;2206497;60;2073;-23
2023/04/06 08:16:35;;;;;;;;;;;;;;;;;;2203742;59;1935;-23
2023/04/06 08:19:07;;;;;;;;;;;;;;;;;;2201549;67;2238;-23
2023/04/06 08:21:37;;;;;;;;;;;;;;;;;;2200784;59;2654;-23
2023/04/06 08:24:07;;;;;;;;;;;;;;;;;;2205392;59;2230;-23
2023/04/06 08:26:38;;;;;;;;;;;;;;;;;;2204107;59;2122;-23
2023/04/06 08:29:08;;;;;;;;;;;;;;;;;;2201012;59;2519;-23
2023/04/06 08:31:38;;;;;;;;;;;;;;;;;;2205537;59;2261;-23
2023/04/06 08:34:08;;;;;;;;;;;;;;;;;;2201955;59;2675;-23
2023/04/06 08:36:39;;;;;;;;;;;;;;;;;;2204940;59;1421;-23
2023/04/06 08:39:09;;;;;;;;;;;;;;;;;;2204011;59;2595;-23
2023/04/06 08:41:43;;;;;;;;;;;;;;;;;;2205931;59;1781;-23
2023/04/06 08:44:14;;;;;;;;;;;;;;;;;;2204886;59;2034;-23
2023/04/06 08:46:44;;;;;;;;;;;;;;;;;;2203072;59;1996;-23
2023/04/06 08:49:15;;;;;;;;;;;;;;;;;;2204452;59;2115;-23
2023/04/06 08:51:46;;;;;;;;;;;;;;;;;;2204122;59;2707;-23
2023/04/06 08:54:17;;;;;;;;;;;;;;;;;;2204428;59;2093;-24
2023/04/06 08:56:47;;;;;;;;;;;;;;;;;;2205854;59;2221;-23
2023/04/06 08:59:17;;;;;;;;;;;;;;;;;;2201939;59;2485;-23
2023/04/06 09:01:48;;;;;;;;;;;;;;;;;;2205181;59;2211;-23
2023/04/06 09:04:18;;;;;;;;;;;;;;;;;;2204926;59;2005;-24
2023/04/06 09:06:49;;;;;;;;;;;;;;;;;;2205414;59;1935;-24
2023/04/06 09:09:20;;;;;;;;;;;;;;;;;;2204471;59;2163;-24
2023/04/06 09:11:51;;;;;;;;;;;;;;;;;;2204952;67;1212;-24
2023/04/06 09:14:35;;;;;;;;;;;;;;;;;;2205532;59;2027;-23
2023/04/06 09:17:06;;;;;;;;;;;;;;;;;;2201891;67;1615;-23
2023/04/06 09:19:46;;;;;;;;;;;;;;;;;;2205794;59;2136;-24
2023/04/06 09:22:16;;;;;;;;;;;;;;;;;;2206302;67;1650;-24
2023/04/06 09:24:47;;;;;;;;;;;;;;;;;;2205860;59;2149;-23
2023/04/06 09:27:18;;;;;;;;;;;;;;;;;;2202536;59;2249;-23
2023/04/06 09:29:48;;;;;;;;;;;;;;;;;;2204922;59;2111;-23
2023/04/06 09:32:18;;;;;;;;;;;;;;;;;;2205690;67;1652;-23
2023/04/06 09:34:49;;;;;;;;;;;;;;;;;;2204908;59;2077;-24
2023/04/06 09:37:19;;;;;;;;;;;;;;;;;;2204636;64;3063;-23
2023/04/06 09:39:52;;;;;;;;;;;;;;;;;;2205167;59;1662;-24
2023/04/06 09:42:25;;;;;;;;;;;;;;;;;;2205394;59;2314;-23
2023/04/06 09:45:04;;;;;;;;;;;;;;;;;;2206094;59;2107;-24
2023/04/06 09:47:40;;;;;;;;;;;;;;;;;;2205347;59;2391;-24
2023/04/06 09:50:11;;;;;;;;;;;;;;;;;;2205898;67;2040;-23
2023/04/06 09:52:46;;;;;;;;;;;;;;;;;;2199697;59;2715;-24
2023/04/06 09:55:30;;;;;;;;;;;;;;;;;;2205353;59;1756;-23
2023/04/06 09:58:25;;;;;;;;;;;;;;;;;;2205623;60;1651;-24
2023/04/06 10:01:02;;;;;;;;;;;;;;;;;;2205514;59;2040;-24
2023/04/06 10:03:41;;;;;;;;;;;;;;;;;;2205356;59;1686;-24
2023/04/06 10:06:13;;;;;;;;;;;;;;;;;;2204906;59;2020;-24
2023/04/06 10:08:45;;;;;;;;;;;;;;;;;;2205379;59;2180;-24
2023/04/06 10:11:16;;;;;;;;;;;;;;;;;;2201984;59;1961;-24
2023/04/06 10:13:47;;;;;;;;;;;;;;;;;;2206630;67;1745;-24
2023/04/06 10:16:21;;;;;;;;;;;;;;;;;;2202706;59;2140;-24
2023/04/06 10:18:58;;;;;;;;;;;;;;;;;;2206154;67;1245;-24
2023/04/06 10:21:29;;;;;;;;;;;;;;;;;;2205900;59;2356;-24
2023/04/06 10:24:00;;;;;;;;;;;;;;;;;;2206137;67;1152;-24
2023/04/06 10:26:31;;;;;;;;;;;;;;;;;;2204063;59;2561;-24
2023/04/06 10:29:02;;;;;;;;;;;;;;;;;;2205027;67;1223;-24
2023/04/06 10:31:39;;;;;;;;;;;;;;;;;;2205206;59;2136;-24
2023/04/06 10:34:12;;;;;;;;;;;;;;;;;;2204953;59;1657;-24
2023/04/06 10:36:42;;;;;;;;;;;;;;;;;;2206214;59;2007;-24
2023/04/06 10:39:13;;;;;;;;;;;;;;;;;;2206179;67;1147;-24
2023/04/06 10:41:46;;;;;;;;;;;;;;;;;;2205588;59;2078;-24
2023/04/06 10:44:22;;;;;;;;;;;;;;;;;;2205475;59;2489;-24
2023/04/06 10:46:56;;;;;;;;;;;;;;;;;;2206373;59;1990;-22
2023/04/06 10:49:27;;;;;;;;;;;;;;;;;;2206077;59;2420;-22
2023/04/06 10:51:57;;;;;;;;;;;;;;;;;;2206788;59;2181;-24
2023/04/06 10:54:32;;;;;;;;;;;;;;;;;;2197535;59;2883;-22
2023/04/06 10:57:02;;;;;;;;;;;;;;;;;;2205568;59;1686;-22
2023/04/06 10:59:33;;;;;;;;;;;;;;;;;;2204942;59;2115;-22
2023/04/06 11:02:03;;;;;;;;;;;;;;;;;;2206563;67;1225;-22
2023/04/06 11:04:33;;;;;;;;;;;;;;;;;;2202103;59;2129;-22
2023/04/06 11:07:04;;;;;;;;;;;;;;;;;;2205986;67;1939;-22
2023/04/06 11:09:36;;;;;;;;;;;;;;;;;;2204502;59;2007;-22
2023/04/06 11:12:06;;;;;;;;;;;;;;;;;;2206540;67;1303;-22
2023/04/06 11:14:37;;;;;;;;;;;;;;;;;;2205482;59;2018;-22
2023/04/06 11:17:07;;;;;;;;;;;;;;;;;;2207138;67;2194;-22
2023/04/06 11:19:37;;;;;;;;;;;;;;;;;;2206161;59;2073;-22
2023/04/06 11:22:08;;;;;;;;;;;;;;;;;;2206409;67;1831;-22
2023/04/06 11:24:38;;;;;;;;;;;;;;;;;;2200257;59;2205;-22
2023/04/06 11:27:08;;;;;;;;;;;;;;;;;;2206007;67;1988;-22
2023/04/06 11:29:40;;;;;;;;;;;;;;;;;;2205751;59;1996;-22
2023/04/06 11:32:10;;;;;;;;;;;;;;;;;;2203508;59;2093;-22
2023/04/06 11:34:41;;;;;;;;;;;;;;;;;;2204343;59;2163;-22
2023/04/06 11:37:11;;;;;;;;;;;;;;;;;;2206529;67;1188;-22
2023/04/06 11:39:46;;;;;;;;;;;;;;;;;;2202967;59;2733;-22
2023/04/06 11:42:23;;;;;;;;;;;;;;;;;;2205415;59;1792;-22
2023/04/06 11:44:54;;;;;;;;;;;;;;;;;;2205407;59;2064;-22
2023/04/06 11:47:28;;;;;;;;;;;;;;;;;;2206339;59;1937;-22
2023/04/06 11:50:12;;;;;;;;;;;;;;;;;;2204839;59;2016;-22
2023/04/06 11:52:42;;;;;;;;;;;;;;;;;;2201977;67;2182;-23
2023/04/06 11:55:16;;;;;;;;;;;;;;;;;;2204184;59;2347;-23
2023/04/06 11:57:47;;;;;;;;;;;;;;;;;;2205868;67;1639;-23
2023/04/06 12:00:17;;;;;;;;;;;;;;;;;;2205735;59;2149;-23
2023/04/06 12:02:48;;;;;;;;;;;;;;;;;;2206061;67;1197;-23
2023/04/06 12:05:18;;;;;;;;;;;;;;;;;;2205941;59;2153;-23
2023/04/06 12:07:48;;;;;;;;;;;;;;;;;;2201864;59;1942;-22
2023/04/06 12:10:18;;;;;;;;;;;;;;;;;;2206005;59;2168;-23
2023/04/06 12:12:49;;;;;;;;;;;;;;;;;;2206548;59;1315;-23
2023/04/06 12:15:19;;;;;;;;;;;;;;;;;;2202712;59;2060;-23
2023/04/06 12:17:49;;;;;;;;;;;;;;;;;;2206589;67;1965;-22
2023/04/06 12:20:20;;;;;;;;;;;;;;;;;;2204855;59;2123;-22
2023/04/06 12:22:50;;;;;;;;;;;;;;;;;;2205868;59;1982;-23
2023/04/06 12:25:20;;;;;;;;;;;;;;;;;;2205427;59;2230;-22
2023/04/06 12:27:50;;;;;;;;;;;;;;;;;;2205837;67;1942;-22
2023/04/06 12:30:20;;;;;;;;;;;;;;;;;;2205368;59;2068;-23
2023/04/06 12:32:51;;;;;;;;;;;;;;;;;;2202473;60;1426;-23
2023/04/06 12:35:21;;;;;;;;;;;;;;;;;;2205136;59;2086;-23
2023/04/06 12:37:51;;;;;;;;;;;;;;;;;;2206741;67;1227;-23
2023/04/06 12:40:21;;;;;;;;;;;;;;;;;;2205510;59;1823;-23
2023/04/06 12:42:52;;;;;;;;;;;;;;;;;;2205738;59;1372;-22
2023/04/06 12:45:22;;;;;;;;;;;;;;;;;;2203473;67;1235;-22
2023/04/06 12:47:52;;;;;;;;;;;;;;;;;;2205681;59;2186;-22
2023/04/06 12:50:22;;;;;;;;;;;;;;;;;;2199466;67;2959;-22
2023/04/06 12:52:53;;;;;;;;;;;;;;;;;;2206148;67;1147;-24
2023/04/06 12:55:23;;;;;;;;;;;;;;;;;;2198817;59;2743;-23
2023/04/06 12:57:53;;;;;;;;;;;;;;;;;;2204821;59;2698;-23
2023/04/06 13:00:24;;;;;;;;;;;;;;;;;;2204537;59;2368;-23
2023/04/06 13:02:54;;;;;;;;;;;;;;;;;;2205470;67;1250;-22
2023/04/06 13:05:24;;;;;;;;;;;;;;;;;;2204091;59;2199;-22
2023/04/06 13:07:55;;;;;;;;;;;;;;;;;;2205279;59;1996;-22
2023/04/06 13:10:26;;;;;;;;;;;;;;;;;;2204583;59;2431;-22
2023/04/06 13:12:56;;;;;;;;;;;;;;;;;;2205200;59;1655;-22
2023/04/06 13:15:26;;;;;;;;;;;;;;;;;;2205528;59;2171;-22
2023/04/06 13:17:57;;;;;;;;;;;;;;;;;;2206866;59;1722;-22
2023/04/06 13:20:27;;;;;;;;;;;;;;;;;;2204454;59;2140;-22
2023/04/06 13:22:57;;;;;;;;;;;;;;;;;;2201934;59;2268;-22
2023/04/06 13:25:28;;;;;;;;;;;;;;;;;;2200230;59;2423;-22
2023/04/06 13:27:59;;;;;;;;;;;;;;;;;;2205613;67;1942;-22
2023/04/06 13:30:29;;;;;;;;;;;;;;;;;;2206500;59;2017;-22
2023/04/06 13:33:01;;;;;;;;;;;;;;;;;;2206399;59;1539;-22
2023/04/06 13:35:31;;;;;;;;;;;;;;;;;;2205372;59;1958;-22
2023/04/06 13:38:02;;;;;;;;;;;;;;;;;;2206726;59;1902;-22
2023/04/06 13:40:32;;;;;;;;;;;;;;;;;;2206343;59;2086;-23
2023/04/06 13:43:02;;;;;;;;;;;;;;;;;;2204708;59;2116;-23
2023/04/06 13:45:33;;;;;;;;;;;;;;;;;;2205957;59;2844;-23
2023/04/06 13:48:03;;;;;;;;;;;;;;;;;;2203717;59;1964;-22
2023/04/06 13:50:34;;;;;;;;;;;;;;;;;;2206093;59;2366;-23
2023/04/06 13:53:04;;;;;;;;;;;;;;;;;;2203232;67;1280;-22
2023/04/06 13:55:34;;;;;;;;;;;;;;;;;;2206078;59;2199;-23
2023/04/06 13:58:04;;;;;;;;;;;;;;;;;;2204559;59;2295;-22
2023/04/06 14:00:35;;;;;;;;;;;;;;;;;;2205585;67;1750;-23
2023/04/06 14:03:05;;;;;;;;;;;;;;;;;;2205216;59;1992;-22
2023/04/06 14:05:35;;;;;;;;;;;;;;;;;;2206467;67;1247;-22
2023/04/06 14:08:06;;;;;;;;;;;;;;;;;;2206477;59;2249;-22
2023/04/06 14:10:36;;;;;;;;;;;;;;;;;;2206663;59;2075;-22
2023/04/06 14:13:07;;;;;;;;;;;;;;;;;;2205540;59;2189;-22
2023/04/06 14:15:39;;;;;;;;;;;;;;;;;;2201134;59;2009;-23
2023/04/06 14:18:09;;;;;;;;;;;;;;;;;;2205252;59;2226;-23
2023/04/06 14:20:39;;;;;;;;;;;;;;;;;;2206266;67;1667;-22
2023/04/06 14:23:10;;;;;;;;;;;;;;;;;;2204662;59;2204;-23
2023/04/06 14:25:40;;;;;;;;;;;;;;;;;;2206208;59;2055;-23
2023/04/06 14:28:11;;;;;;;;;;;;;;;;;;2204477;59;2058;-23
2023/04/06 14:30:42;;;;;;;;;;;;;;;;;;2204999;59;2160;-23
2023/04/06 14:33:12;;;;;;;;;;;;;;;;;;2205488;59;2352;-23
2023/04/06 14:35:42;;;;;;;;;;;;;;;;;;2205850;59;1361;-23
2023/04/06 14:38:12;;;;;;;;;;;;;;;;;;2205529;59;2604;-23
2023/04/06 14:40:43;;;;;;;;;;;;;;;;;;2206174;59;2168;-23
2023/04/06 14:43:13;;;;;;;;;;;;;;;;;;2201728;59;2174;-23
2023/04/06 14:45:43;;;;;;;;;;;;;;;;;;2202957;59;1846;-23
2023/04/06 14:48:15;;;;;;;;;;;;;;;;;;2206423;59;2011;-22
2023/04/06 14:50:53;;;;;;;;;;;;;;;;;;2205884;59;1674;-23
2023/04/06 14:53:23;;;;;;;;;;;;;;;;;;2204914;59;2064;-23
2023/04/06 14:55:54;;;;;;;;;;;;;;;;;;2205225;67;2655;-23
2023/04/06 14:58:25;;;;;;;;;;;;;;;;;;2204747;59;2508;-23
2023/04/06 15:00:59;;;;;;;;;;;;;;;;;;2205790;67;1370;-23
2023/04/06 15:03:30;;;;;;;;;;;;;;;;;;2205149;59;2044;-23
2023/04/06 15:06:00;;;;;;;;;;;;;;;;;;2206390;67;1247;-23
2023/04/06 15:08:30;;;;;;;;;;;;;;;;;;2205278;59;2107;-23
2023/04/06 15:11:00;;;;;;;;;;;;;;;;;;2205580;59;2028;-23
2023/04/06 15:13:30;;;;;;;;;;;;;;;;;;2205956;59;1973;-23
2023/04/06 15:16:01;;;;;;;;;;;;;;;;;;2205949;59;1323;-23
2023/04/06 15:18:31;;;;;;;;;;;;;;;;;;2205988;59;2146;-24
2023/04/06 15:21:01;;;;;;;;;;;;;;;;;;2202362;67;1662;-23
2023/04/06 15:23:33;;;;;;;;;;;;;;;;;;2206337;59;2136;-23
2023/04/06 15:26:04;;;;;;;;;;;;;;;;;;2204880;59;2380;-23
2023/04/06 15:28:34;;;;;;;;;;;;;;;;;;2204264;59;2360;-23
2023/04/06 15:31:12;;;;;;;;;;;;;;;;;;2207130;59;2152;-23
2023/04/06 15:33:42;;;;;;;;;;;;;;;;;;2205396;59;1976;-23
2023/04/06 15:36:23;;;;;;;;;;;;;;;;;;2206116;59;2202;-23
2023/04/06 15:38:53;;;;;;;;;;;;;;;;;;2204913;59;2262;-23
2023/04/06 15:41:25;;;;;;;;;;;;;;;;;;2204198;59;2193;-23
2023/04/06 15:43:56;;;;;;;;;;;;;;;;;;2205577;59;1285;-23
2023/04/06 15:46:27;;;;;;;;;;;;;;;;;;2202705;59;2490;-23
2023/04/06 15:48:57;;;;;;;;;;;;;;;;;;2202176;59;2631;-23
2023/04/06 15:51:29;;;;;;;;;;;;;;;;;;2205140;59;2196;-23
2023/04/06 15:53:59;;;;;;;;;;;;;;;;;;2205522;67;2076;-23
2023/04/06 15:56:31;;;;;;;;;;;;;;;;;;2204527;59;2922;-23
2023/04/06 15:59:03;;;;;;;;;;;;;;;;;;2202990;59;2227;-23
2023/04/06 16:01:33;;;;;;;;;;;;;;;;;;2201868;59;3083;-23
2023/04/06 16:04:07;;;;;;;;;;;;;;;;;;2201902;59;2270;-23
2023/04/06 16:06:37;;;;;;;;;;;;;;;;;;2206409;59;1538;-23
2023/04/06 16:09:07;;;;;;;;;;;;;;;;;;2205954;59;2456;-23
2023/04/06 16:11:37;;;;;;;;;;;;;;;;;;2205812;67;1797;-23
2023/04/06 16:14:08;;;;;;;;;;;;;;;;;;2204450;59;2095;-23
2023/04/06 16:16:38;;;;;;;;;;;;;;;;;;2206330;67;1255;-23
2023/04/06 16:19:09;;;;;;;;;;;;;;;;;;2204466;59;2379;-23
2023/04/06 16:21:42;;;;;;;;;;;;;;;;;;2205903;67;1495;-23
2023/04/06 16:24:12;;;;;;;;;;;;;;;;;;2205105;59;2283;-23
2023/04/06 16:26:43;;;;;;;;;;;;;;;;;;2206117;59;2396;-23
2023/04/06 16:29:15;;;;;;;;;;;;;;;;;;2203857;59;2104;-23
2023/04/06 16:31:46;;;;;;;;;;;;;;;;;;2202025;59;2275;-23
2023/04/06 16:34:17;;;;;;;;;;;;;;;;;;2205892;59;2102;-23
2023/04/06 16:36:47;;;;;;;;;;;;;;;;;;2205883;59;1750;-23
2023/04/06 16:39:18;;;;;;;;;;;;;;;;;;2205966;59;2050;-23
2023/04/06 16:41:48;;;;;;;;;;;;;;;;;;2202526;59;1811;-23
2023/04/06 16:44:18;;;;;;;;;;;;;;;;;;2206138;59;2248;-23
2023/04/06 16:46:49;;;;;;;;;;;;;;;;;;2205754;67;1942;-23
2023/04/06 16:49:20;;;;;;;;;;;;;;;;;;2205419;59;2267;-24
2023/04/06 16:51:50;;;;;;;;;;;;;;;;;;2206651;67;1774;-24
2023/04/06 16:54:20;;;;;;;;;;;;;;;;;;2206475;59;1928;-25
2023/04/06 16:56:51;;;;;;;;;;;;;;;;;;2207077;59;1621;-25
2023/04/06 16:59:21;;;;;;;;;;;;;;;;;;2204764;59;2749;-25
2023/04/06 17:01:51;;;;;;;;;;;;;;;;;;2202185;67;3001;-23
2023/04/06 17:04:22;;;;;;;;;;;;;;;;;;2205124;59;2287;-29
2023/04/06 17:06:52;;;;;;;;;;;;;;;;;;2205868;59;1945;-25
2023/04/06 17:09:22;;;;;;;;;;;;;;;;;;2204552;59;2205;-25
2023/04/06 17:11:52;;;;;;;;;;;;;;;;;;2204648;67;1241;-25
2023/04/06 17:14:23;;;;;;;;;;;;;;;;;;2204798;59;2053;-25
2023/04/06 17:16:54;;;;;;;;;;;;;;;;;;2206059;59;2207;-25
2023/04/06 17:19:25;;;;;;;;;;;;;;;;;;2206123;67;1148;-25
2023/04/06 17:21:56;;;;;;;;;;;;;;;;;;2205772;67;1319;-25
2023/04/06 17:24:26;;;;;;;;;;;;;;;;;;2205644;67;1241;-25
2023/04/06 17:26:56;;;;;;;;;;;;;;;;;;2204667;59;1939;-25
2023/04/06 17:29:26;;;;;;;;;;;;;;;;;;2206125;67;1325;-25